Ugnu Kuparuk, AK

1:54 PM AKST op 27 november 2014 (GMT -0900)
Kuparuk | Change Station
CLOSE
Current Station
Luchthaven
Location: Kuparuk,
Geometrische hoogte: 66 ft
Nabije weerstations

Hoogte 66 ft 70.33 °N, 149.60 °W | Updated 4 minutes ago

Partly Cloudy
Gedeeltelijk bewolkt
-13 °F
Voelt als -34 °F
N
13
Wind Variabel Wind van OZO

Vandaag
Hoog -- | Laag -- °F
--% Kans op neerslag
Gisteren
Hoog -- | Laag -- °F
Precip. -- inches
12:13 PM 1:18 PM
Wassende halvemaan, 33% visible
Druk 30.32 inches
Zicht 10.0 mijlen
Wolken Gering 22000 ft
Gevoelstemperatuur -34 °F
Dauwpunt -17 °F
Vochtigheid 84%
Neerslag 0.00 inches
Dikte sneeuw Niet beschikbaar.
UV 0 van de 12
Pollen Niet beschikbaar.
Luchtkwaliteit Niet beschikbaar.
Flu Activity Niet beschikbaar.
METAR PAKU 272250Z 11011KT 10SM R06/P6000FT FEW220 M25/M27 A3032

More Conditions Fewer Conditions

Druk 30.32 inches
Zicht 10.0 mijlen
Wolken Gering 22000 ft
Gevoelstemperatuur -34 °F
Dauwpunt -17 °F
Vochtigheid 84%
Neerslag 0.00 inches
Dikte sneeuw Niet beschikbaar.
UV 0 van de 12
Pollen Niet beschikbaar.
Luchtkwaliteit Niet beschikbaar.
Flu Activity Niet beschikbaar.
METAR PAKU 272250Z 11011KT 10SM R06/P6000FT FEW220 M25/M27 A3032

More Conditions Fewer Conditions

10-Day Weather Forecast

Almanac

Astronomie

Nov. 27, 2014 Opkomst Ondergang
Werkelijke tijd
Burgerlijke schemering
Nautische schemering
Astronomische schemering
Maan
Golflengte van het zichtbare licht
Daglengte
Tomorrow will be .
, % of the Moon is Illuminated

Extremen vandaag

State Highs State Lows

Community

WunderPhotos

Upload Photos

1,774,125 foto’s ge-upload!

WunderBlogs® & News

Nearby

Luchtkwaliteit

  Luchtkwaliteit LK-index Verontreinigende stof
Not available.

Dikte sneeuw

Station Depth Geometrische hoogte

Aardbevingen

Stad Distance Mag. Time & Date
Minimum magnitude displayed is 2.5.

Watertemperatuur langs de kust

Plaats Temperatuur

Nabije weerstations